createdAt,value
2022-11-20T00:01:10.742Z,-0.30
2022-11-20T00:03:38.049Z,-0.20
2022-11-20T00:06:07.353Z,-0.30
2022-11-20T00:08:35.079Z,-0.30
2022-11-20T00:11:28.823Z,-0.30
2022-11-20T00:14:00.302Z,-0.40
2022-11-20T00:16:29.056Z,-0.30
2022-11-20T00:18:55.867Z,-0.40
2022-11-20T00:21:27.890Z,-0.40
2022-11-20T00:23:58.413Z,-0.40
2022-11-20T00:26:27.534Z,-0.40
2022-11-20T00:29:00.918Z,-0.40
2022-11-20T00:31:28.547Z,-0.40
2022-11-20T00:33:55.460Z,-0.40
2022-11-20T00:36:24.608Z,-0.50
2022-11-20T00:38:55.574Z,-0.50
2022-11-20T00:41:22.902Z,-0.50
2022-11-20T00:43:50.035Z,-0.50
2022-11-20T00:46:19.426Z,-0.60
2022-11-20T00:48:46.581Z,-0.60
2022-11-20T00:51:19.406Z,-0.60
2022-11-20T00:53:47.239Z,-0.60
2022-11-20T00:56:26.388Z,-0.70
2022-11-20T00:58:53.230Z,-0.70
2022-11-20T01:01:25.410Z,-0.70
2022-11-20T01:03:54.410Z,-0.80
2022-11-20T01:06:36.408Z,-0.80
2022-11-20T01:09:13.406Z,-0.80
2022-11-20T01:11:43.866Z,-0.90
2022-11-20T01:14:20.094Z,-0.90
2022-11-20T01:16:50.313Z,-1.00
2022-11-20T01:19:22.521Z,-1.00
2022-11-20T01:21:52.843Z,-1.10
2022-11-20T01:24:22.187Z,-1.10
2022-11-20T01:26:51.058Z,-1.10
2022-11-20T01:29:24.084Z,-1.10
2022-11-20T01:31:52.380Z,-1.10
2022-11-20T01:34:23.124Z,-1.20
2022-11-20T01:36:55.321Z,-1.20
2022-11-20T01:39:25.858Z,-1.30
2022-11-20T01:42:12.779Z,-1.30
2022-11-20T01:45:00.932Z,-1.30
2022-11-20T01:47:40.736Z,-1.40
2022-11-20T01:50:20.197Z,-1.40
2022-11-20T01:52:51.046Z,-1.40
2022-11-20T01:55:24.674Z,-1.40
2022-11-20T01:57:51.877Z,-1.40
2022-11-20T02:00:26.051Z,-1.40
2022-11-20T02:02:57.528Z,-1.40
2022-11-20T02:05:36.249Z,-1.50
2022-11-20T02:08:05.313Z,-1.50
2022-11-20T02:10:32.908Z,-1.50
2022-11-20T02:13:28.974Z,-1.50
2022-11-20T02:15:56.196Z,-1.60
2022-11-20T02:18:24.102Z,-1.60
2022-11-20T02:20:56.341Z,-1.60
2022-11-20T02:23:38.114Z,-1.60
2022-11-20T02:26:09.262Z,-1.60
2022-11-20T02:28:36.634Z,-1.60
2022-11-20T02:31:04.299Z,-1.70
2022-11-20T02:33:31.207Z,-1.70
2022-11-20T02:35:58.013Z,-1.60
2022-11-20T02:38:24.952Z,-1.70
2022-11-20T02:40:55.535Z,-1.70
2022-11-20T02:43:23.304Z,-1.70
2022-11-20T02:45:50.107Z,-1.60
2022-11-20T02:48:16.960Z,-1.60
2022-11-20T02:50:43.729Z,-1.60
2022-11-20T02:53:10.565Z,-1.50
2022-11-20T02:55:37.709Z,-1.50
2022-11-20T02:58:04.562Z,-1.50
2022-11-20T03:00:31.620Z,-1.40
2022-11-20T03:02:58.517Z,-1.40
2022-11-20T03:05:25.314Z,-1.40
2022-11-20T03:07:52.065Z,-1.40
2022-11-20T03:10:18.867Z,-1.40
2022-11-20T03:12:46.404Z,-1.40
2022-11-20T03:15:13.267Z,-1.30
2022-11-20T03:17:40.116Z,-1.30
2022-11-20T03:20:08.365Z,-1.30
2022-11-20T03:22:35.252Z,-1.20
2022-11-20T03:25:01.994Z,-1.20
2022-11-20T03:27:34.076Z,-1.20
2022-11-20T03:30:00.920Z,-1.20
2022-11-20T03:32:27.766Z,-1.20
2022-11-20T03:34:54.585Z,-1.10
2022-11-20T03:37:21.350Z,-1.10
2022-11-20T03:39:48.124Z,-1.10
2022-11-20T03:42:33.426Z,-1.10
2022-11-20T03:45:00.237Z,-1.10
2022-11-20T03:47:27.000Z,-1.00
2022-11-20T03:49:53.791Z,-1.00
2022-11-20T03:52:20.546Z,-1.00
2022-11-20T03:54:47.402Z,-0.90
2022-11-20T03:57:14.268Z,-0.90
2022-11-20T03:59:41.148Z,-0.90
2022-11-20T04:02:08.029Z,-0.90
2022-11-20T04:04:38.016Z,-0.80
2022-11-20T04:07:05.404Z,-0.80
2022-11-20T04:09:32.279Z,-0.80
2022-11-20T04:11:59.080Z,-0.80
2022-11-20T04:14:26.164Z,-0.80
2022-11-20T04:16:53.005Z,-0.80
2022-11-20T04:19:20.253Z,-0.80
2022-11-20T04:21:47.796Z,-0.80
2022-11-20T04:24:14.682Z,-0.70
2022-11-20T04:26:41.910Z,-0.70
2022-11-20T04:29:12.369Z,-0.70
2022-11-20T04:31:39.601Z,-0.70
2022-11-20T04:34:08.373Z,-0.60
2022-11-20T04:36:35.650Z,-0.60
2022-11-20T04:39:05.865Z,-0.70
2022-11-20T04:41:36.842Z,-0.60
2022-11-20T04:44:05.830Z,-0.60
2022-11-20T04:46:37.825Z,-0.60
2022-11-20T04:49:05.131Z,-0.60
2022-11-20T04:51:32.167Z,-0.60
2022-11-20T04:53:58.999Z,-0.60
2022-11-20T04:56:26.055Z,-0.60
2022-11-20T04:58:52.992Z,-0.60
2022-11-20T05:01:22.289Z,-0.60
2022-11-20T05:03:49.571Z,-0.60
2022-11-20T05:06:18.426Z,-0.50
2022-11-20T05:08:45.385Z,-0.50
2022-11-20T05:11:14.889Z,-0.50
2022-11-20T05:13:42.255Z,-0.50
2022-11-20T05:16:12.146Z,-0.50
2022-11-20T05:18:39.745Z,-0.50
2022-11-20T05:21:07.904Z,-0.50
2022-11-20T05:23:35.344Z,-0.50
2022-11-20T05:26:03.108Z,-0.50
2022-11-20T05:28:31.831Z,-0.50
2022-11-20T05:31:09.720Z,-0.50
2022-11-20T05:33:36.877Z,-0.50
2022-11-20T05:36:05.015Z,-0.50
2022-11-20T05:38:32.098Z,-0.50
2022-11-20T05:41:16.852Z,-0.50
2022-11-20T05:43:45.501Z,-0.50
2022-11-20T05:46:14.745Z,-0.50
2022-11-20T05:48:43.433Z,-0.50
2022-11-20T05:51:11.889Z,-0.50
2022-11-20T05:53:42.440Z,-0.50
2022-11-20T05:56:16.009Z,-0.50
2022-11-20T05:58:43.249Z,-0.50
2022-11-20T06:01:14.350Z,-0.50
2022-11-20T06:03:43.325Z,-0.50
2022-11-20T06:06:10.576Z,-0.50
2022-11-20T06:08:39.698Z,-0.50
2022-11-20T06:11:08.140Z,-0.60
2022-11-20T06:13:39.204Z,-0.60
2022-11-20T06:16:09.019Z,-0.60
2022-11-20T06:18:35.749Z,-0.60
2022-11-20T06:21:23.755Z,-0.60
2022-11-20T06:23:51.686Z,-0.60
2022-11-20T06:26:25.450Z,-0.70
2022-11-20T06:28:53.342Z,-0.70
2022-11-20T06:31:23.892Z,-0.70
2022-11-20T06:33:52.009Z,-0.70
2022-11-20T06:36:20.127Z,-0.80
2022-11-20T06:38:47.424Z,-0.80
2022-11-20T06:41:19.946Z,-0.80
2022-11-20T06:43:47.310Z,-0.80
2022-11-20T06:46:15.971Z,-0.80
2022-11-20T06:48:42.814Z,-0.80
2022-11-20T06:51:11.225Z,-0.80
2022-11-20T06:53:38.545Z,-0.80
2022-11-20T06:56:06.589Z,-0.80
2022-11-20T06:58:34.408Z,-0.80
2022-11-20T07:01:01.785Z,-0.90
2022-11-20T07:03:28.716Z,-0.90
2022-11-20T07:05:57.126Z,-0.80
2022-11-20T07:08:24.497Z,-0.80
2022-11-20T07:10:51.571Z,-0.80
2022-11-20T07:13:18.526Z,-0.80
2022-11-20T07:15:45.410Z,-0.70
2022-11-20T07:18:12.203Z,-0.70
2022-11-20T07:20:39.012Z,-0.70
2022-11-20T07:23:05.846Z,-0.70
2022-11-20T07:25:32.688Z,-0.60
2022-11-20T07:28:00.297Z,-0.60
2022-11-20T07:30:30.975Z,-0.60
2022-11-20T07:32:58.501Z,-0.60
2022-11-20T07:35:25.804Z,-0.50
2022-11-20T07:37:52.835Z,-0.50
2022-11-20T07:40:20.605Z,-0.40
2022-11-20T07:42:52.224Z,-0.40
2022-11-20T07:45:20.463Z,-0.40
2022-11-20T07:47:47.596Z,-0.30
2022-11-20T07:50:14.748Z,-0.40
2022-11-20T07:52:41.894Z,-0.30
2022-11-20T07:55:10.038Z,-0.30
2022-11-20T07:57:46.452Z,-0.30
2022-11-20T08:00:16.963Z,-0.20
2022-11-20T08:02:43.804Z,-0.30
2022-11-20T08:05:11.418Z,-0.20
2022-11-20T08:07:43.433Z,-0.20
2022-11-20T08:10:12.690Z,-0.10
2022-11-20T08:13:09.828Z,-0.10
2022-11-20T08:15:37.637Z,-0.10
2022-11-20T08:18:30.690Z,0.00
2022-11-20T08:20:59.241Z,0.00
2022-11-20T08:23:26.182Z,0.00
2022-11-20T08:25:53.131Z,0.00
2022-11-20T08:28:22.038Z,0.00
2022-11-20T08:30:50.904Z,0.10
2022-11-20T08:33:18.578Z,0.10
2022-11-20T08:35:45.553Z,0.20
2022-11-20T08:38:12.619Z,0.20
2022-11-20T08:40:39.422Z,0.20
2022-11-20T08:43:06.205Z,0.20
2022-11-20T08:45:35.044Z,0.20
2022-11-20T08:48:03.806Z,0.30
2022-11-20T08:50:33.612Z,0.30
2022-11-20T08:53:07.152Z,0.30
2022-11-20T08:55:36.678Z,0.20
2022-11-20T08:58:12.110Z,0.30
2022-11-20T09:00:39.098Z,0.30
2022-11-20T09:03:05.900Z,0.20
2022-11-20T09:05:32.953Z,0.30
2022-11-20T09:08:00.682Z,0.20
2022-11-20T09:10:28.494Z,0.40
2022-11-20T09:12:58.904Z,0.30
2022-11-20T09:15:26.983Z,0.30
2022-11-20T09:17:57.477Z,0.40
2022-11-20T09:20:24.421Z,0.40
2022-11-20T09:22:51.640Z,0.50
2022-11-20T09:25:18.662Z,0.40
2022-11-20T09:27:47.069Z,0.40
2022-11-20T09:30:15.800Z,0.40
2022-11-20T09:32:43.594Z,0.40
2022-11-20T09:35:11.507Z,0.40
2022-11-20T09:37:38.707Z,0.50
2022-11-20T09:40:06.166Z,0.50
2022-11-20T09:42:56.163Z,0.50
2022-11-20T09:45:50.109Z,0.50
2022-11-20T09:48:16.857Z,0.50
2022-11-20T09:50:48.659Z,0.50
2022-11-20T09:53:48.571Z,0.50
2022-11-20T09:56:19.731Z,0.60
2022-11-20T09:58:52.780Z,0.60
2022-11-20T10:01:22.641Z,0.60
2022-11-20T10:03:52.375Z,0.60
2022-11-20T10:06:23.048Z,0.50
2022-11-20T10:09:01.750Z,0.60
2022-11-20T10:11:42.170Z,0.70
2022-11-20T10:14:33.636Z,0.70
2022-11-20T10:17:14.837Z,0.80
2022-11-20T10:20:06.458Z,0.80
2022-11-20T10:23:06.262Z,0.80
2022-11-20T10:25:40.982Z,0.80
2022-11-20T10:28:31.377Z,0.80
2022-11-20T10:31:11.264Z,0.80
2022-11-20T10:34:05.137Z,0.90
2022-11-20T10:36:39.740Z,0.90
2022-11-20T10:39:31.178Z,0.90
2022-11-20T10:41:58.264Z,0.90
2022-11-20T10:44:52.310Z,1.00
2022-11-20T10:47:22.615Z,1.00
2022-11-20T10:49:54.104Z,1.10
2022-11-20T10:52:38.494Z,1.20
2022-11-20T10:55:11.341Z,1.20
2022-11-20T10:58:08.770Z,1.30
2022-11-20T11:00:35.603Z,1.40
2022-11-20T11:03:05.456Z,1.50
2022-11-20T11:06:01.730Z,1.70
2022-11-20T11:08:37.197Z,1.70
2022-11-20T11:11:29.500Z,1.80
2022-11-20T11:14:25.660Z,1.80
2022-11-20T11:16:57.931Z,1.90
2022-11-20T11:19:25.629Z,2.00
2022-11-20T11:21:57.669Z,2.10
2022-11-20T11:24:44.953Z,2.20
2022-11-20T11:27:17.181Z,2.30
2022-11-20T11:29:45.590Z,2.50
2022-11-20T11:32:13.576Z,2.60
2022-11-20T11:34:40.707Z,2.60
2022-11-20T11:37:18.403Z,2.70
2022-11-20T11:39:49.376Z,2.70
2022-11-20T11:42:22.224Z,2.50
2022-11-20T11:45:07.711Z,2.50
2022-11-20T11:47:45.019Z,2.40
2022-11-20T11:50:14.619Z,2.40
2022-11-20T11:53:10.402Z,2.50
2022-11-20T11:56:07.137Z,2.30
2022-11-20T11:58:46.421Z,2.30
2022-11-20T12:01:50.094Z,2.30
2022-11-20T12:04:43.067Z,2.30
2022-11-20T12:07:44.794Z,2.10
2022-11-20T12:10:17.732Z,2.00
2022-11-20T12:12:48.782Z,1.90
2022-11-20T12:15:32.186Z,1.80
2022-11-20T12:17:59.136Z,1.70
2022-11-20T12:20:37.239Z,1.60
2022-11-20T12:23:37.458Z,1.50
2022-11-20T12:26:15.022Z,1.50
2022-11-20T12:28:49.895Z,1.40
2022-11-20T12:31:47.854Z,1.40
2022-11-20T12:34:33.093Z,1.40
2022-11-20T12:37:24.147Z,1.40
2022-11-20T12:39:51.697Z,1.40
2022-11-20T12:42:50.192Z,1.40
2022-11-20T12:45:58.005Z,1.50
2022-11-20T12:48:24.766Z,1.60
2022-11-20T12:51:16.061Z,1.50
2022-11-20T12:54:06.125Z,1.60
2022-11-20T12:57:03.418Z,1.60
2022-11-20T12:59:49.177Z,1.60
2022-11-20T13:02:37.516Z,1.60
2022-11-20T13:05:17.669Z,1.50
2022-11-20T13:07:45.483Z,1.50
2022-11-20T13:10:22.976Z,1.40
2022-11-20T13:13:02.466Z,1.50
2022-11-20T13:15:37.728Z,1.50
2022-11-20T13:18:12.255Z,1.50
2022-11-20T13:20:44.414Z,1.50
2022-11-20T13:23:11.566Z,1.50
2022-11-20T13:25:40.960Z,1.60
2022-11-20T13:28:10.580Z,1.60
2022-11-20T13:30:49.718Z,1.60
2022-11-20T13:33:35.192Z,1.70
2022-11-20T13:36:03.345Z,1.80
2022-11-20T13:38:41.194Z,1.70
2022-11-20T13:41:28.106Z,1.60
2022-11-20T13:43:59.787Z,1.70
2022-11-20T13:46:37.819Z,1.70
2022-11-20T13:49:18.828Z,1.70
2022-11-20T13:51:48.596Z,1.50
2022-11-20T13:54:24.936Z,1.50
2022-11-20T13:57:13.614Z,1.60
2022-11-20T14:00:02.342Z,1.70
2022-11-20T14:02:37.882Z,1.70
2022-11-20T14:05:06.448Z,1.90
2022-11-20T14:07:38.460Z,2.20
2022-11-20T14:10:06.082Z,2.50
2022-11-20T14:12:35.231Z,2.60
2022-11-20T14:15:02.161Z,3.10
2022-11-20T14:17:37.663Z,3.00
2022-11-20T14:20:14.713Z,2.70
2022-11-20T14:22:53.426Z,2.40
2022-11-20T14:25:24.233Z,2.10
2022-11-20T14:27:56.969Z,1.90
2022-11-20T14:30:29.934Z,1.70
2022-11-20T14:33:04.242Z,1.60
2022-11-20T14:35:36.579Z,1.50
2022-11-20T14:38:03.966Z,1.30
2022-11-20T14:40:40.560Z,1.20
2022-11-20T14:43:40.100Z,1.20
2022-11-20T14:46:09.769Z,1.10
2022-11-20T14:48:47.249Z,1.00
2022-11-20T14:51:34.386Z,0.90
2022-11-20T14:54:23.626Z,0.80
2022-11-20T14:56:58.156Z,0.70
2022-11-20T14:59:26.986Z,0.60
2022-11-20T15:02:09.047Z,0.60
2022-11-20T15:05:04.319Z,0.50
2022-11-20T15:07:37.260Z,0.50
2022-11-20T15:10:08.620Z,0.50
2022-11-20T15:12:39.532Z,0.50
2022-11-20T15:15:15.793Z,0.40
2022-11-20T15:17:42.913Z,0.50
2022-11-20T15:20:17.620Z,0.50
2022-11-20T15:22:44.621Z,0.50
2022-11-20T15:25:16.786Z,0.50
2022-11-20T15:27:44.984Z,0.40
2022-11-20T15:30:15.151Z,0.50
2022-11-20T15:32:42.954Z,0.40
2022-11-20T15:35:10.713Z,0.40
2022-11-20T15:37:41.546Z,0.40
2022-11-20T15:40:09.584Z,0.40
2022-11-20T15:42:37.465Z,0.40
2022-11-20T15:45:04.443Z,0.40
2022-11-20T15:47:35.934Z,0.50
2022-11-20T15:50:02.957Z,0.50
2022-11-20T15:52:40.230Z,0.50
2022-11-20T15:55:11.563Z,0.50
2022-11-20T15:57:38.547Z,0.60
2022-11-20T16:00:06.583Z,0.50
2022-11-20T16:02:37.664Z,0.60
2022-11-20T16:05:05.434Z,0.50
2022-11-20T16:07:32.367Z,0.60
2022-11-20T16:09:59.489Z,0.60
2022-11-20T16:12:44.876Z,0.60
2022-11-20T16:15:30.687Z,0.60
2022-11-20T16:17:57.508Z,0.60
2022-11-20T16:20:24.537Z,0.60
2022-11-20T16:22:51.309Z,0.60
2022-11-20T16:25:18.324Z,0.60
2022-11-20T16:27:45.184Z,0.60
2022-11-20T16:30:12.143Z,0.70
2022-11-20T16:32:39.735Z,0.70
2022-11-20T16:35:08.501Z,0.60
2022-11-20T16:37:35.694Z,0.60
2022-11-20T16:40:02.533Z,0.50
2022-11-20T16:42:33.999Z,0.40
2022-11-20T16:45:00.950Z,0.30
2022-11-20T16:47:27.774Z,0.30
2022-11-20T16:50:01.031Z,0.20
2022-11-20T16:52:30.053Z,0.20
2022-11-20T16:55:03.587Z,0.10
2022-11-20T16:57:33.354Z,0.10
2022-11-20T17:00:02.590Z,0.00
2022-11-20T17:02:29.613Z,-0.10
2022-11-20T17:04:56.527Z,-0.20
2022-11-20T17:07:23.484Z,-0.20
2022-11-20T17:09:50.420Z,-0.30
2022-11-20T17:12:17.389Z,-0.40
2022-11-20T17:14:44.236Z,-0.50
2022-11-20T17:17:11.106Z,-0.50
2022-11-20T17:19:37.968Z,-0.60
2022-11-20T17:22:04.784Z,-0.60
2022-11-20T17:24:32.166Z,-0.70
2022-11-20T17:26:59.184Z,-0.70
2022-11-20T17:29:25.953Z,-0.80
2022-11-20T17:31:54.331Z,-0.90
2022-11-20T17:34:21.759Z,-0.90
2022-11-20T17:36:48.893Z,-0.90
2022-11-20T17:39:17.047Z,-1.00
2022-11-20T17:41:44.775Z,-1.00
2022-11-20T17:44:12.977Z,-1.10
2022-11-20T17:46:40.228Z,-1.10
2022-11-20T17:49:07.571Z,-1.10
2022-11-20T17:51:35.327Z,-1.10
2022-11-20T17:54:05.160Z,-1.10
2022-11-20T17:56:52.505Z,-1.20
2022-11-20T17:59:19.765Z,-1.20
2022-11-20T18:01:47.121Z,-1.30
2022-11-20T18:04:14.545Z,-1.30
2022-11-20T18:06:42.812Z,-1.40
2022-11-20T18:09:10.147Z,-1.40
2022-11-20T18:11:41.295Z,-1.40
2022-11-20T18:14:31.174Z,-1.40
2022-11-20T18:17:05.516Z,-1.50
2022-11-20T18:19:40.273Z,-1.50
2022-11-20T18:22:13.270Z,-1.60
2022-11-20T18:24:40.623Z,-1.60
2022-11-20T18:27:13.615Z,-1.50
2022-11-20T18:29:40.545Z,-1.50
2022-11-20T18:32:07.478Z,-1.80
2022-11-20T18:34:34.388Z,-1.80
2022-11-20T18:37:01.443Z,-1.80
2022-11-20T18:39:28.649Z,-1.80
2022-11-20T18:42:13.978Z,-1.90
2022-11-20T18:44:54.548Z,-1.80
2022-11-20T18:47:24.533Z,-1.90
2022-11-20T18:49:57.332Z,-1.80
2022-11-20T18:52:28.558Z,-1.90
2022-11-20T18:54:56.487Z,-2.00
2022-11-20T18:57:24.806Z,-1.90
2022-11-20T18:59:53.758Z,-2.00
2022-11-20T19:02:21.526Z,-2.00
2022-11-20T19:04:48.837Z,-2.10
2022-11-20T19:07:16.312Z,-2.10
2022-11-20T19:09:45.038Z,-2.10
2022-11-20T19:12:12.909Z,-2.20
2022-11-20T19:14:40.070Z,-2.20
2022-11-20T19:17:08.255Z,-2.10
2022-11-20T19:19:35.536Z,-2.10
2022-11-20T19:22:02.961Z,-2.20
2022-11-20T19:24:30.140Z,-2.10
2022-11-20T19:26:57.259Z,-2.20
2022-11-20T19:29:25.319Z,-2.10
2022-11-20T19:31:53.220Z,-2.10
2022-11-20T19:34:20.301Z,-2.30
2022-11-20T19:36:48.188Z,-2.40
2022-11-20T19:39:15.371Z,-2.50
2022-11-20T19:41:42.254Z,-2.50
2022-11-20T19:44:14.196Z,-2.60
2022-11-20T19:46:41.861Z,-2.50
2022-11-20T19:49:12.821Z,-2.50
2022-11-20T19:51:44.715Z,-2.50
2022-11-20T19:54:11.858Z,-2.40
2022-11-20T19:56:38.987Z,-2.50
2022-11-20T19:59:05.891Z,-2.50
2022-11-20T20:01:32.821Z,-2.30
2022-11-20T20:04:02.553Z,-2.30
2022-11-20T20:06:30.470Z,-2.20
2022-11-20T20:09:03.702Z,-2.10
2022-11-20T20:11:33.058Z,-2.20
2022-11-20T20:14:05.240Z,-2.30
2022-11-20T20:16:32.435Z,-2.30
2022-11-20T20:19:01.780Z,-2.30
2022-11-20T20:21:30.558Z,-2.30
2022-11-20T20:23:58.996Z,-2.30
2022-11-20T20:26:27.452Z,-2.30
2022-11-20T20:28:54.500Z,-2.40
2022-11-20T20:31:29.248Z,-2.40
2022-11-20T20:33:56.962Z,-2.50
2022-11-20T20:36:24.682Z,-2.60
2022-11-20T20:39:04.848Z,-2.70
2022-11-20T20:41:32.039Z,-2.80
2022-11-20T20:44:17.448Z,-3.00
2022-11-20T20:46:44.365Z,-2.90
2022-11-20T20:49:11.227Z,-2.80
2022-11-20T20:51:38.167Z,-2.70
2022-11-20T20:54:05.141Z,-2.60
2022-11-20T20:56:31.955Z,-2.70
2022-11-20T20:58:58.875Z,-2.80
2022-11-20T21:01:28.922Z,-2.80
2022-11-20T21:03:57.254Z,-2.90
2022-11-20T21:06:24.730Z,-3.00
2022-11-20T21:08:51.593Z,-2.90
2022-11-20T21:11:20.038Z,-3.10
2022-11-20T21:13:47.717Z,-3.20
2022-11-20T21:16:16.386Z,-3.20
2022-11-20T21:18:43.453Z,-3.20
2022-11-20T21:21:32.497Z,-3.20
2022-11-20T21:23:59.466Z,-3.30
2022-11-20T21:26:26.303Z,-3.30
2022-11-20T21:28:53.636Z,-3.40
2022-11-20T21:31:23.570Z,-3.40
2022-11-20T21:33:52.312Z,-3.40
2022-11-20T21:36:21.756Z,-3.40
2022-11-20T21:38:50.645Z,-3.70
2022-11-20T21:41:17.503Z,-3.40
2022-11-20T21:43:44.558Z,-3.40
2022-11-20T21:46:16.502Z,-3.50
2022-11-20T21:48:44.631Z,-3.60
2022-11-20T21:51:13.962Z,-3.50
2022-11-20T21:53:41.431Z,-3.50
2022-11-20T21:56:09.730Z,-3.50
2022-11-20T21:58:38.140Z,-3.60
2022-11-20T22:01:15.974Z,-3.60
2022-11-20T22:03:43.526Z,-3.70
2022-11-20T22:06:10.624Z,-3.60
2022-11-20T22:08:38.771Z,-3.60
2022-11-20T22:11:09.129Z,-3.70
2022-11-20T22:13:54.659Z,-3.70
2022-11-20T22:16:22.020Z,-3.90
2022-11-20T22:18:51.081Z,-3.80
2022-11-20T22:21:23.148Z,-3.80
2022-11-20T22:23:50.695Z,-3.80
2022-11-20T22:26:20.231Z,-3.80
2022-11-20T22:28:51.815Z,-3.90
2022-11-20T22:31:20.492Z,-3.80
2022-11-20T22:33:47.626Z,-3.90
2022-11-20T22:36:20.423Z,-3.80
2022-11-20T22:38:47.518Z,-3.70
2022-11-20T22:41:19.386Z,-3.60
2022-11-20T22:43:46.469Z,-3.50
2022-11-20T22:46:14.325Z,-3.50
2022-11-20T22:48:44.032Z,-3.50
2022-11-20T22:51:13.568Z,-3.40
2022-11-20T22:53:41.818Z,-3.50
2022-11-20T22:56:12.391Z,-3.40
2022-11-20T22:58:41.148Z,-3.40
2022-11-20T23:01:21.249Z,-3.40
2022-11-20T23:03:50.473Z,-3.30
2022-11-20T23:06:19.560Z,-3.10
2022-11-20T23:08:47.288Z,-3.10
2022-11-20T23:11:16.539Z,-3.10
2022-11-20T23:13:44.228Z,-3.00
2022-11-20T23:16:17.233Z,-3.00
2022-11-20T23:18:44.788Z,-3.00
2022-11-20T23:21:14.195Z,-3.00
2022-11-20T23:23:44.167Z,-2.80
2022-11-20T23:26:13.091Z,-2.80
2022-11-20T23:28:41.125Z,-2.70
2022-11-20T23:31:12.140Z,-2.70
2022-11-20T23:33:40.793Z,-2.70
2022-11-20T23:36:08.219Z,-2.70
2022-11-20T23:38:35.405Z,-2.60
2022-11-20T23:41:02.516Z,-2.70
2022-11-20T23:43:29.390Z,-2.60
2022-11-20T23:45:58.050Z,-2.70
2022-11-20T23:48:30.028Z,-2.60
2022-11-20T23:50:57.325Z,-2.60
2022-11-20T23:53:24.966Z,-2.50
2022-11-20T23:55:57.097Z,-2.50
2022-11-20T23:58:25.636Z,-2.40
